Albers, Illinois
Current Conditions -  °F | °C
As of 5:58 AM on Friday 21 Nov 2014 (Local Time) from KBLV Reporting Station
Clear Clear  
Wind Chill: -9°   Ceiling: Unl
Heat Index: -6°   Visibility: 10mi
Dew Point: -9°   Wind: 5mph
Humidity: 76%   Direction: 80°E
Pressure: 30.4"   Gusts: NA
Location:  38.54°N, 89.61°W
Report Text: KBLV 211158Z AUTO 08004KT 10SM CLR M06/M09 A3040 RMK AO2 SLP304 T10561093 11052 21070 52007
Loading
Personal Weather Stations






























Interactive Weather Map New forecast layout! Learn more

10-Day Weather Forecast

Advertisements
Track Severe Weather on mobile